sensor_id;sensor_type;location;lat;lon;timestamp;P1;durP1;ratioP1;P2;durP2;ratioP2
55015;SDS011;40919;43.236;21.590;2022-12-18T00:01:41;32.92;;;21.08;;
55015;SDS011;40919;43.236;21.590;2022-12-18T00:04:11;35.92;;;22.45;;
55015;SDS011;40919;43.236;21.590;2022-12-18T00:06:43;42.25;;;26.13;;
55015;SDS011;40919;43.236;21.590;2022-12-18T00:09:09;41.10;;;27.65;;
55015;SDS011;40919;43.236;21.590;2022-12-18T00:11:35;39.97;;;24.15;;
55015;SDS011;40919;43.236;21.590;2022-12-18T00:14:01;46.92;;;28.60;;
55015;SDS011;40919;43.236;21.590;2022-12-18T00:16:27;38.55;;;25.20;;
55015;SDS011;40919;43.236;21.590;2022-12-18T00:18:57;38.53;;;24.65;;
55015;SDS011;40919;43.236;21.590;2022-12-18T00:21:23;33.80;;;21.80;;
55015;SDS011;40919;43.236;21.590;2022-12-18T00:23:49;31.35;;;21.67;;
55015;SDS011;40919;43.236;21.590;2022-12-18T00:26:16;34.75;;;22.88;;
55015;SDS011;40919;43.236;21.590;2022-12-18T00:28:53;37.15;;;24.15;;
55015;SDS011;40919;43.236;21.590;2022-12-18T00:31:21;40.05;;;23.25;;
55015;SDS011;40919;43.236;21.590;2022-12-18T00:33:49;37.95;;;23.88;;
55015;SDS011;40919;43.236;21.590;2022-12-18T00:38:45;39.47;;;24.73;;
55015;SDS011;40919;43.236;21.590;2022-12-18T00:41:13;42.72;;;25.45;;
55015;SDS011;40919;43.236;21.590;2022-12-18T00:44:03;43.67;;;25.52;;
55015;SDS011;40919;43.236;21.590;2022-12-18T00:46:30;44.70;;;27.48;;
55015;SDS011;40919;43.236;21.590;2022-12-18T00:48:56;49.90;;;30.52;;
55015;SDS011;40919;43.236;21.590;2022-12-18T00:51:23;49.60;;;28.83;;
55015;SDS011;40919;43.236;21.590;2022-12-18T00:53:49;40.55;;;25.85;;
55015;SDS011;40919;43.236;21.590;2022-12-18T00:56:15;46.17;;;28.20;;
55015;SDS011;40919;43.236;21.590;2022-12-18T00:58:41;43.65;;;29.17;;
55015;SDS011;40919;43.236;21.590;2022-12-18T01:01:07;40.25;;;25.45;;
55015;SDS011;40919;43.236;21.590;2022-12-18T01:03:33;47.67;;;29.58;;
55015;SDS011;40919;43.236;21.590;2022-12-18T01:06:04;45.50;;;28.70;;
55015;SDS011;40919;43.236;21.590;2022-12-18T01:08:34;43.45;;;26.67;;
55015;SDS011;40919;43.236;21.590;2022-12-18T01:11:00;43.05;;;27.70;;
55015;SDS011;40919;43.236;21.590;2022-12-18T01:13:32;43.38;;;28.25;;
55015;SDS011;40919;43.236;21.590;2022-12-18T01:15:58;43.28;;;26.08;;
55015;SDS011;40919;43.236;21.590;2022-12-18T01:18:24;46.55;;;28.73;;
55015;SDS011;40919;43.236;21.590;2022-12-18T01:20:49;45.92;;;29.10;;
55015;SDS011;40919;43.236;21.590;2022-12-18T01:23:15;48.72;;;29.38;;
55015;SDS011;40919;43.236;21.590;2022-12-18T01:25:41;46.60;;;29.52;;
55015;SDS011;40919;43.236;21.590;2022-12-18T01:28:07;46.05;;;30.05;;
55015;SDS011;40919;43.236;21.590;2022-12-18T01:30:33;52.75;;;32.70;;
55015;SDS011;40919;43.236;21.590;2022-12-18T01:32:58;50.35;;;30.55;;
55015;SDS011;40919;43.236;21.590;2022-12-18T01:35:26;54.83;;;30.45;;
55015;SDS011;40919;43.236;21.590;2022-12-18T01:37:55;53.00;;;30.65;;
55015;SDS011;40919;43.236;21.590;2022-12-18T01:40:21;54.83;;;32.83;;
55015;SDS011;40919;43.236;21.590;2022-12-18T01:42:51;63.45;;;37.47;;
55015;SDS011;40919;43.236;21.590;2022-12-18T01:47:44;71.10;;;40.78;;
55015;SDS011;40919;43.236;21.590;2022-12-18T01:53:06;60.58;;;36.15;;
55015;SDS011;40919;43.236;21.590;2022-12-18T01:55:43;53.63;;;30.52;;
55015;SDS011;40919;43.236;21.590;2022-12-18T01:58:17;52.47;;;34.53;;
55015;SDS011;40919;43.236;21.590;2022-12-18T02:00:44;52.85;;;35.58;;
55015;SDS011;40919;43.236;21.590;2022-12-18T02:03:11;91.88;;;47.25;;
55015;SDS011;40919;43.236;21.590;2022-12-18T02:11:06;62.90;;;39.30;;
55015;SDS011;40919;43.236;21.590;2022-12-18T02:13:59;55.80;;;32.00;;
55015;SDS011;40919;43.236;21.590;2022-12-18T02:27:46;53.28;;;33.15;;
55015;SDS011;40919;43.236;21.590;2022-12-18T02:30:14;57.97;;;31.98;;
55015;SDS011;40919;43.236;21.590;2022-12-18T02:32:42;57.60;;;34.63;;
55015;SDS011;40919;43.236;21.590;2022-12-18T02:35:13;53.75;;;33.58;;
55015;SDS011;40919;43.236;21.590;2022-12-18T02:37:43;48.60;;;30.08;;
55015;SDS011;40919;43.236;21.590;2022-12-18T02:40:12;51.78;;;29.48;;
55015;SDS011;40919;43.236;21.590;2022-12-18T02:42:40;55.00;;;31.98;;
55015;SDS011;40919;43.236;21.590;2022-12-18T02:45:06;55.92;;;32.85;;
55015;SDS011;40919;43.236;21.590;2022-12-18T02:47:34;58.90;;;34.80;;
55015;SDS011;40919;43.236;21.590;2022-12-18T02:58:37;59.42;;;35.58;;
55015;SDS011;40919;43.236;21.590;2022-12-18T03:06:23;58.42;;;33.35;;
55015;SDS011;40919;43.236;21.590;2022-12-18T03:08:56;59.63;;;33.05;;
55015;SDS011;40919;43.236;21.590;2022-12-18T03:11:46;67.93;;;36.88;;
55015;SDS011;40919;43.236;21.590;2022-12-18T03:14:37;56.42;;;33.22;;
55015;SDS011;40919;43.236;21.590;2022-12-18T03:17:05;61.55;;;34.70;;
55015;SDS011;40919;43.236;21.590;2022-12-18T03:22:05;55.28;;;32.97;;
55015;SDS011;40919;43.236;21.590;2022-12-18T03:24:33;55.45;;;31.80;;
55015;SDS011;40919;43.236;21.590;2022-12-18T03:27:05;54.80;;;32.95;;
55015;SDS011;40919;43.236;21.590;2022-12-18T03:29:40;61.47;;;34.28;;
55015;SDS011;40919;43.236;21.590;2022-12-18T03:34:40;51.17;;;30.02;;
55015;SDS011;40919;43.236;21.590;2022-12-18T03:37:09;49.58;;;29.80;;
55015;SDS011;40919;43.236;21.590;2022-12-18T03:39:36;55.30;;;31.02;;
55015;SDS011;40919;43.236;21.590;2022-12-18T03:42:05;50.45;;;29.45;;
55015;SDS011;40919;43.236;21.590;2022-12-18T03:45:11;52.00;;;29.08;;
55015;SDS011;40919;43.236;21.590;2022-12-18T03:48:00;51.53;;;30.02;;
55015;SDS011;40919;43.236;21.590;2022-12-18T03:56:14;44.65;;;26.95;;
55015;SDS011;40919;43.236;21.590;2022-12-18T03:58:42;51.10;;;28.05;;
55015;SDS011;40919;43.236;21.590;2022-12-18T04:01:09;48.58;;;28.58;;
55015;SDS011;40919;43.236;21.590;2022-12-18T04:03:39;49.90;;;29.80;;
55015;SDS011;40919;43.236;21.590;2022-12-18T04:06:07;50.80;;;30.95;;
55015;SDS011;40919;43.236;21.590;2022-12-18T04:08:35;51.97;;;29.20;;
55015;SDS011;40919;43.236;21.590;2022-12-18T04:11:01;49.20;;;29.02;;
55015;SDS011;40919;43.236;21.590;2022-12-18T04:13:28;47.58;;;28.75;;
55015;SDS011;40919;43.236;21.590;2022-12-18T04:15:57;47.55;;;30.33;;
55015;SDS011;40919;43.236;21.590;2022-12-18T04:18:22;42.72;;;26.40;;
55015;SDS011;40919;43.236;21.590;2022-12-18T04:20:48;49.10;;;29.52;;
55015;SDS011;40919;43.236;21.590;2022-12-18T04:23:14;46.53;;;28.85;;
55015;SDS011;40919;43.236;21.590;2022-12-18T04:25:40;45.40;;;27.48;;
55015;SDS011;40919;43.236;21.590;2022-12-18T04:28:06;51.83;;;30.63;;
55015;SDS011;40919;43.236;21.590;2022-12-18T04:30:32;49.85;;;29.27;;
55015;SDS011;40919;43.236;21.590;2022-12-18T04:32:58;47.65;;;29.02;;
55015;SDS011;40919;43.236;21.590;2022-12-18T04:35:23;46.08;;;27.85;;
55015;SDS011;40919;43.236;21.590;2022-12-18T04:37:50;48.38;;;28.00;;
55015;SDS011;40919;43.236;21.590;2022-12-18T04:40:15;46.30;;;28.88;;
55015;SDS011;40919;43.236;21.590;2022-12-18T04:42:41;47.90;;;28.48;;
55015;SDS011;40919;43.236;21.590;2022-12-18T04:45:07;49.78;;;29.52;;
55015;SDS011;40919;43.236;21.590;2022-12-18T04:47:34;51.60;;;29.83;;
55015;SDS011;40919;43.236;21.590;2022-12-18T04:50:00;55.05;;;30.65;;
55015;SDS011;40919;43.236;21.590;2022-12-18T04:52:26;51.92;;;31.98;;
55015;SDS011;40919;43.236;21.590;2022-12-18T04:54:52;51.20;;;30.38;;
55015;SDS011;40919;43.236;21.590;2022-12-18T04:57:18;47.03;;;28.42;;
55015;SDS011;40919;43.236;21.590;2022-12-18T04:59:45;51.42;;;29.63;;
55015;SDS011;40919;43.236;21.590;2022-12-18T05:02:11;48.15;;;29.38;;
55015;SDS011;40919;43.236;21.590;2022-12-18T05:04:37;48.28;;;26.85;;
55015;SDS011;40919;43.236;21.590;2022-12-18T05:07:03;43.75;;;26.30;;
55015;SDS011;40919;43.236;21.590;2022-12-18T05:09:29;44.72;;;28.90;;
55015;SDS011;40919;43.236;21.590;2022-12-18T05:11:55;43.47;;;27.20;;
55015;SDS011;40919;43.236;21.590;2022-12-18T05:14:21;48.35;;;28.95;;
55015;SDS011;40919;43.236;21.590;2022-12-18T05:16:46;50.85;;;29.52;;
55015;SDS011;40919;43.236;21.590;2022-12-18T05:19:12;47.30;;;28.58;;
55015;SDS011;40919;43.236;21.590;2022-12-18T05:21:38;48.15;;;29.48;;
55015;SDS011;40919;43.236;21.590;2022-12-18T05:24:04;49.42;;;28.83;;
55015;SDS011;40919;43.236;21.590;2022-12-18T05:26:30;45.95;;;26.30;;
55015;SDS011;40919;43.236;21.590;2022-12-18T05:28:56;40.75;;;24.83;;
55015;SDS011;40919;43.236;21.590;2022-12-18T05:31:22;39.00;;;21.95;;
55015;SDS011;40919;43.236;21.590;2022-12-18T05:33:48;42.47;;;24.60;;
55015;SDS011;40919;43.236;21.590;2022-12-18T05:36:14;55.72;;;33.20;;
55015;SDS011;40919;43.236;21.590;2022-12-18T05:38:40;49.15;;;31.63;;
55015;SDS011;40919;43.236;21.590;2022-12-18T05:41:06;54.47;;;30.70;;
55015;SDS011;40919;43.236;21.590;2022-12-18T05:43:36;52.70;;;33.83;;
55015;SDS011;40919;43.236;21.590;2022-12-18T05:46:07;43.08;;;25.25;;
55015;SDS011;40919;43.236;21.590;2022-12-18T05:48:36;41.58;;;24.13;;
55015;SDS011;40919;43.236;21.590;2022-12-18T05:51:09;36.38;;;21.48;;
55015;SDS011;40919;43.236;21.590;2022-12-18T05:53:40;44.22;;;26.52;;
55015;SDS011;40919;43.236;21.590;2022-12-18T05:56:07;52.67;;;31.70;;
55015;SDS011;40919;43.236;21.590;2022-12-18T05:58:36;39.35;;;23.50;;
55015;SDS011;40919;43.236;21.590;2022-12-18T06:01:06;40.22;;;24.30;;
55015;SDS011;40919;43.236;21.590;2022-12-18T06:03:40;36.25;;;22.23;;
55015;SDS011;40919;43.236;21.590;2022-12-18T06:06:16;38.22;;;23.70;;
55015;SDS011;40919;43.236;21.590;2022-12-18T06:08:44;39.53;;;23.77;;
55015;SDS011;40919;43.236;21.590;2022-12-18T06:11:10;38.55;;;23.48;;
55015;SDS011;40919;43.236;21.590;2022-12-18T06:13:36;41.35;;;23.08;;
55015;SDS011;40919;43.236;21.590;2022-12-18T06:16:03;38.35;;;23.00;;
55015;SDS011;40919;43.236;21.590;2022-12-18T06:18:30;41.90;;;24.63;;
55015;SDS011;40919;43.236;21.590;2022-12-18T06:20:56;38.75;;;22.65;;
55015;SDS011;40919;43.236;21.590;2022-12-18T06:23:23;39.72;;;24.33;;
55015;SDS011;40919;43.236;21.590;2022-12-18T06:25:49;44.50;;;26.42;;
55015;SDS011;40919;43.236;21.590;2022-12-18T06:28:15;44.35;;;25.65;;
55015;SDS011;40919;43.236;21.590;2022-12-18T06:30:44;47.35;;;25.52;;
55015;SDS011;40919;43.236;21.590;2022-12-18T06:33:10;55.17;;;32.90;;
55015;SDS011;40919;43.236;21.590;2022-12-18T06:35:36;49.05;;;31.25;;
55015;SDS011;40919;43.236;21.590;2022-12-18T06:38:03;48.97;;;29.35;;
55015;SDS011;40919;43.236;21.590;2022-12-18T06:40:29;72.82;;;42.60;;
55015;SDS011;40919;43.236;21.590;2022-12-18T06:42:55;85.05;;;52.22;;
55015;SDS011;40919;43.236;21.590;2022-12-18T06:45:21;99.75;;;54.53;;
55015;SDS011;40919;43.236;21.590;2022-12-18T06:47:48;72.07;;;42.20;;
55015;SDS011;40919;43.236;21.590;2022-12-18T06:50:14;107.28;;;61.92;;
55015;SDS011;40919;43.236;21.590;2022-12-18T06:52:40;57.55;;;33.80;;
55015;SDS011;40919;43.236;21.590;2022-12-18T06:55:07;56.80;;;34.17;;
55015;SDS011;40919;43.236;21.590;2022-12-18T06:57:34;66.95;;;42.40;;
55015;SDS011;40919;43.236;21.590;2022-12-18T07:00:00;66.93;;;41.90;;
55015;SDS011;40919;43.236;21.590;2022-12-18T07:02:26;66.70;;;39.45;;
55015;SDS011;40919;43.236;21.590;2022-12-18T07:04:52;63.53;;;39.50;;
55015;SDS011;40919;43.236;21.590;2022-12-18T07:07:18;58.33;;;33.90;;
55015;SDS011;40919;43.236;21.590;2022-12-18T07:09:44;53.53;;;31.38;;
55015;SDS011;40919;43.236;21.590;2022-12-18T07:12:11;59.17;;;37.97;;
55015;SDS011;40919;43.236;21.590;2022-12-18T07:14:37;50.00;;;30.38;;
55015;SDS011;40919;43.236;21.590;2022-12-18T07:17:03;57.72;;;36.67;;
55015;SDS011;40919;43.236;21.590;2022-12-18T07:19:29;52.67;;;32.72;;
55015;SDS011;40919;43.236;21.590;2022-12-18T07:21:55;44.70;;;26.17;;
55015;SDS011;40919;43.236;21.590;2022-12-18T07:24:21;38.35;;;26.35;;
55015;SDS011;40919;43.236;21.590;2022-12-18T07:26:47;39.50;;;24.48;;
55015;SDS011;40919;43.236;21.590;2022-12-18T07:29:13;43.97;;;27.13;;
55015;SDS011;40919;43.236;21.590;2022-12-18T07:31:39;44.83;;;29.30;;
55015;SDS011;40919;43.236;21.590;2022-12-18T07:34:09;44.85;;;26.20;;
55015;SDS011;40919;43.236;21.590;2022-12-18T07:36:35;50.88;;;31.02;;
55015;SDS011;40919;43.236;21.590;2022-12-18T07:39:01;43.58;;;27.08;;
55015;SDS011;40919;43.236;21.590;2022-12-18T07:41:27;50.13;;;29.80;;
55015;SDS011;40919;43.236;21.590;2022-12-18T07:43:53;56.40;;;30.35;;
55015;SDS011;40919;43.236;21.590;2022-12-18T07:46:19;59.40;;;30.40;;
55015;SDS011;40919;43.236;21.590;2022-12-18T07:48:46;50.00;;;30.42;;
55015;SDS011;40919;43.236;21.590;2022-12-18T07:51:12;57.00;;;32.80;;
55015;SDS011;40919;43.236;21.590;2022-12-18T07:53:38;62.20;;;38.78;;
55015;SDS011;40919;43.236;21.590;2022-12-18T07:56:05;69.40;;;42.70;;
55015;SDS011;40919;43.236;21.590;2022-12-18T07:58:33;50.45;;;27.98;;
55015;SDS011;40919;43.236;21.590;2022-12-18T08:01:05;59.08;;;35.65;;
55015;SDS011;40919;43.236;21.590;2022-12-18T08:03:32;50.80;;;31.75;;
55015;SDS011;40919;43.236;21.590;2022-12-18T08:06:02;49.30;;;31.73;;
55015;SDS011;40919;43.236;21.590;2022-12-18T08:08:29;59.25;;;37.08;;
55015;SDS011;40919;43.236;21.590;2022-12-18T08:10:56;61.15;;;36.63;;
55015;SDS011;40919;43.236;21.590;2022-12-18T08:13:22;63.35;;;36.58;;
55015;SDS011;40919;43.236;21.590;2022-12-18T08:15:58;55.92;;;34.50;;
55015;SDS011;40919;43.236;21.590;2022-12-18T08:18:25;73.50;;;44.08;;
55015;SDS011;40919;43.236;21.590;2022-12-18T08:20:51;69.85;;;41.28;;
55015;SDS011;40919;43.236;21.590;2022-12-18T08:23:17;57.20;;;33.08;;
55015;SDS011;40919;43.236;21.590;2022-12-18T08:25:43;68.93;;;38.33;;
55015;SDS011;40919;43.236;21.590;2022-12-18T08:28:09;68.75;;;40.25;;
55015;SDS011;40919;43.236;21.590;2022-12-18T08:30:35;87.65;;;52.17;;
55015;SDS011;40919;43.236;21.590;2022-12-18T08:33:01;67.32;;;41.00;;
55015;SDS011;40919;43.236;21.590;2022-12-18T08:35:27;69.82;;;39.75;;
55015;SDS011;40919;43.236;21.590;2022-12-18T08:37:53;76.70;;;49.53;;
55015;SDS011;40919;43.236;21.590;2022-12-18T08:40:19;73.55;;;43.28;;
55015;SDS011;40919;43.236;21.590;2022-12-18T08:42:45;51.42;;;34.13;;
55015;SDS011;40919;43.236;21.590;2022-12-18T08:45:29;73.00;;;44.33;;
55015;SDS011;40919;43.236;21.590;2022-12-18T08:47:55;66.20;;;40.35;;
55015;SDS011;40919;43.236;21.590;2022-12-18T08:50:21;67.32;;;41.20;;
55015;SDS011;40919;43.236;21.590;2022-12-18T08:52:46;64.07;;;41.65;;
55015;SDS011;40919;43.236;21.590;2022-12-18T08:55:12;58.40;;;37.03;;
55015;SDS011;40919;43.236;21.590;2022-12-18T08:57:38;69.43;;;41.88;;
55015;SDS011;40919;43.236;21.590;2022-12-18T09:00:04;70.30;;;44.03;;
55015;SDS011;40919;43.236;21.590;2022-12-18T09:02:31;70.45;;;43.72;;
55015;SDS011;40919;43.236;21.590;2022-12-18T09:04:57;81.15;;;49.15;;
55015;SDS011;40919;43.236;21.590;2022-12-18T09:07:23;83.63;;;49.15;;
55015;SDS011;40919;43.236;21.590;2022-12-18T09:09:50;96.47;;;54.80;;
55015;SDS011;40919;43.236;21.590;2022-12-18T09:12:16;94.28;;;54.50;;
55015;SDS011;40919;43.236;21.590;2022-12-18T09:14:42;96.90;;;55.78;;
55015;SDS011;40919;43.236;21.590;2022-12-18T09:17:08;128.38;;;65.55;;
55015;SDS011;40919;43.236;21.590;2022-12-18T09:19:34;124.05;;;65.55;;
55015;SDS011;40919;43.236;21.590;2022-12-18T09:22:00;81.75;;;48.58;;
55015;SDS011;40919;43.236;21.590;2022-12-18T09:24:27;94.47;;;56.00;;
55015;SDS011;40919;43.236;21.590;2022-12-18T09:26:53;81.18;;;50.03;;
55015;SDS011;40919;43.236;21.590;2022-12-18T09:29:20;93.47;;;52.85;;
55015;SDS011;40919;43.236;21.590;2022-12-18T09:31:46;77.47;;;44.70;;
55015;SDS011;40919;43.236;21.590;2022-12-18T09:34:12;79.47;;;49.88;;
55015;SDS011;40919;43.236;21.590;2022-12-18T09:36:38;59.63;;;36.40;;
55015;SDS011;40919;43.236;21.590;2022-12-18T09:39:04;68.55;;;39.83;;
55015;SDS011;40919;43.236;21.590;2022-12-18T09:41:47;76.38;;;47.60;;
55015;SDS011;40919;43.236;21.590;2022-12-18T09:44:20;73.20;;;44.08;;
55015;SDS011;40919;43.236;21.590;2022-12-18T09:46:48;69.22;;;42.05;;
55015;SDS011;40919;43.236;21.590;2022-12-18T09:49:16;80.10;;;47.75;;
55015;SDS011;40919;43.236;21.590;2022-12-18T09:51:48;73.28;;;43.40;;
55015;SDS011;40919;43.236;21.590;2022-12-18T09:54:20;83.78;;;47.60;;
55015;SDS011;40919;43.236;21.590;2022-12-18T09:56:47;77.53;;;42.37;;
55015;SDS011;40919;43.236;21.590;2022-12-18T10:02:15;62.35;;;36.28;;
55015;SDS011;40919;43.236;21.590;2022-12-18T10:04:41;83.90;;;50.90;;
55015;SDS011;40919;43.236;21.590;2022-12-18T10:07:12;82.53;;;47.85;;
55015;SDS011;40919;43.236;21.590;2022-12-18T10:14:54;87.93;;;50.92;;
55015;SDS011;40919;43.236;21.590;2022-12-18T10:25:02;73.07;;;47.33;;
55015;SDS011;40919;43.236;21.590;2022-12-18T10:27:29;79.32;;;52.47;;
55015;SDS011;40919;43.236;21.590;2022-12-18T10:29:56;81.63;;;52.88;;
55015;SDS011;40919;43.236;21.590;2022-12-18T10:32:27;59.85;;;37.97;;
55015;SDS011;40919;43.236;21.590;2022-12-18T10:34:55;81.88;;;54.78;;
55015;SDS011;40919;43.236;21.590;2022-12-18T10:37:25;91.32;;;54.10;;
55015;SDS011;40919;43.236;21.590;2022-12-18T10:40:08;82.50;;;49.30;;
55015;SDS011;40919;43.236;21.590;2022-12-18T10:42:35;72.43;;;44.20;;
55015;SDS011;40919;43.236;21.590;2022-12-18T10:45:03;61.95;;;37.60;;
55015;SDS011;40919;43.236;21.590;2022-12-18T10:50:00;59.47;;;41.22;;
55015;SDS011;40919;43.236;21.590;2022-12-18T10:52:27;70.70;;;50.03;;
55015;SDS011;40919;43.236;21.590;2022-12-18T10:55:00;83.63;;;61.17;;
55015;SDS011;40919;43.236;21.590;2022-12-18T10:59:58;56.45;;;34.58;;
55015;SDS011;40919;43.236;21.590;2022-12-18T11:02:33;54.35;;;32.72;;
55015;SDS011;40919;43.236;21.590;2022-12-18T11:05:00;51.92;;;29.30;;
55015;SDS011;40919;43.236;21.590;2022-12-18T11:07:33;52.45;;;29.35;;
55015;SDS011;40919;43.236;21.590;2022-12-18T11:10:15;47.65;;;29.17;;
55015;SDS011;40919;43.236;21.590;2022-12-18T11:12:42;54.90;;;32.08;;
55015;SDS011;40919;43.236;21.590;2022-12-18T11:15:41;59.35;;;35.17;;
55015;SDS011;40919;43.236;21.590;2022-12-18T11:18:13;59.33;;;35.47;;
55015;SDS011;40919;43.236;21.590;2022-12-18T11:20:54;67.85;;;40.20;;
55015;SDS011;40919;43.236;21.590;2022-12-18T11:23:22;98.47;;;54.65;;
55015;SDS011;40919;43.236;21.590;2022-12-18T11:25:59;62.15;;;36.22;;
55015;SDS011;40919;43.236;21.590;2022-12-18T11:31:15;63.63;;;36.70;;
55015;SDS011;40919;43.236;21.590;2022-12-18T11:33:44;57.22;;;31.38;;
55015;SDS011;40919;43.236;21.590;2022-12-18T11:36:12;51.03;;;30.10;;
55015;SDS011;40919;43.236;21.590;2022-12-18T11:38:39;62.20;;;37.40;;
55015;SDS011;40919;43.236;21.590;2022-12-18T11:43:50;66.30;;;40.85;;
55015;SDS011;40919;43.236;21.590;2022-12-18T11:46:26;96.38;;;56.83;;
55015;SDS011;40919;43.236;21.590;2022-12-18T11:52:01;79.45;;;46.90;;
55015;SDS011;40919;43.236;21.590;2022-12-18T11:54:37;52.53;;;31.58;;
55015;SDS011;40919;43.236;21.590;2022-12-18T12:16:50;49.75;;;28.73;;
55015;SDS011;40919;43.236;21.590;2022-12-18T12:19:53;42.55;;;25.92;;
55015;SDS011;40919;43.236;21.590;2022-12-18T12:27:37;43.10;;;27.15;;
55015;SDS011;40919;43.236;21.590;2022-12-18T12:35:24;55.05;;;35.08;;
55015;SDS011;40919;43.236;21.590;2022-12-18T12:40:19;133.45;;;81.40;;
55015;SDS011;40919;43.236;21.590;2022-12-18T12:42:47;112.07;;;69.80;;
55015;SDS011;40919;43.236;21.590;2022-12-18T12:48:05;60.95;;;37.65;;
55015;SDS011;40919;43.236;21.590;2022-12-18T12:50:33;83.93;;;44.00;;
55015;SDS011;40919;43.236;21.590;2022-12-18T12:52:59;83.38;;;48.10;;
55015;SDS011;40919;43.236;21.590;2022-12-18T12:55:28;131.90;;;69.78;;
55015;SDS011;40919;43.236;21.590;2022-12-18T12:58:15;203.02;;;92.78;;
55015;SDS011;40919;43.236;21.590;2022-12-18T13:00:49;115.03;;;62.42;;
55015;SDS011;40919;43.236;21.590;2022-12-18T13:03:32;69.30;;;37.80;;
55015;SDS011;40919;43.236;21.590;2022-12-18T13:06:03;121.90;;;61.35;;
55015;SDS011;40919;43.236;21.590;2022-12-18T13:08:51;89.47;;;52.75;;
55015;SDS011;40919;43.236;21.590;2022-12-18T13:11:31;156.80;;;79.55;;
55015;SDS011;40919;43.236;21.590;2022-12-18T13:14:20;106.53;;;56.17;;
55015;SDS011;40919;43.236;21.590;2022-12-18T13:16:47;173.20;;;98.07;;
55015;SDS011;40919;43.236;21.590;2022-12-18T13:19:23;108.55;;;70.80;;
55015;SDS011;40919;43.236;21.590;2022-12-18T13:21:55;93.82;;;56.08;;
55015;SDS011;40919;43.236;21.590;2022-12-18T13:26:47;93.20;;;54.15;;
55015;SDS011;40919;43.236;21.590;2022-12-18T13:29:15;74.72;;;44.38;;
55015;SDS011;40919;43.236;21.590;2022-12-18T13:32:00;79.47;;;45.60;;
55015;SDS011;40919;43.236;21.590;2022-12-18T13:34:28;78.55;;;43.97;;
55015;SDS011;40919;43.236;21.590;2022-12-18T13:36:56;76.25;;;45.10;;
55015;SDS011;40919;43.236;21.590;2022-12-18T13:39:30;126.32;;;72.53;;
55015;SDS011;40919;43.236;21.590;2022-12-18T13:42:40;91.88;;;51.78;;
55015;SDS011;40919;43.236;21.590;2022-12-18T13:47:54;75.05;;;43.63;;
55015;SDS011;40919;43.236;21.590;2022-12-18T13:50:23;67.07;;;40.72;;
55015;SDS011;40919;43.236;21.590;2022-12-18T13:52:50;108.32;;;60.30;;
55015;SDS011;40919;43.236;21.590;2022-12-18T13:55:18;109.28;;;66.05;;
55015;SDS011;40919;43.236;21.590;2022-12-18T13:57:44;90.85;;;57.58;;
55015;SDS011;40919;43.236;21.590;2022-12-18T14:02:44;103.57;;;56.58;;
55015;SDS011;40919;43.236;21.590;2022-12-18T14:05:32;90.28;;;55.45;;
55015;SDS011;40919;43.236;21.590;2022-12-18T14:08:01;88.10;;;49.90;;
55015;SDS011;40919;43.236;21.590;2022-12-18T14:10:28;82.65;;;48.47;;
55015;SDS011;40919;43.236;21.590;2022-12-18T14:12:54;74.72;;;45.65;;
55015;SDS011;40919;43.236;21.590;2022-12-18T14:17:57;73.00;;;45.30;;
55015;SDS011;40919;43.236;21.590;2022-12-18T14:20:24;70.07;;;43.38;;
55015;SDS011;40919;43.236;21.590;2022-12-18T14:22:50;82.05;;;51.53;;
55015;SDS011;40919;43.236;21.590;2022-12-18T14:25:24;82.28;;;54.40;;
55015;SDS011;40919;43.236;21.590;2022-12-18T14:30:34;78.47;;;49.40;;
55015;SDS011;40919;43.236;21.590;2022-12-18T14:35:27;78.20;;;48.67;;
55015;SDS011;40919;43.236;21.590;2022-12-18T14:37:53;90.32;;;54.38;;
55015;SDS011;40919;43.236;21.590;2022-12-18T14:40:19;79.13;;;46.65;;
55015;SDS011;40919;43.236;21.590;2022-12-18T14:42:45;84.45;;;52.13;;
55015;SDS011;40919;43.236;21.590;2022-12-18T14:47:57;133.13;;;100.60;;
55015;SDS011;40919;43.236;21.590;2022-12-18T14:50:23;101.05;;;62.78;;
55015;SDS011;40919;43.236;21.590;2022-12-18T14:52:49;104.93;;;65.25;;
55015;SDS011;40919;43.236;21.590;2022-12-18T14:55:16;108.28;;;68.55;;
55015;SDS011;40919;43.236;21.590;2022-12-18T14:57:43;97.22;;;60.88;;
55015;SDS011;40919;43.236;21.590;2022-12-18T15:00:19;90.82;;;55.50;;
55015;SDS011;40919;43.236;21.590;2022-12-18T15:02:48;82.10;;;50.35;;
55015;SDS011;40919;43.236;21.590;2022-12-18T15:05:18;112.82;;;69.20;;
55015;SDS011;40919;43.236;21.590;2022-12-18T15:07:49;115.50;;;71.38;;
55015;SDS011;40919;43.236;21.590;2022-12-18T15:10:17;110.88;;;62.60;;
55015;SDS011;40919;43.236;21.590;2022-12-18T15:20:44;124.38;;;75.28;;
55015;SDS011;40919;43.236;21.590;2022-12-18T15:25:56;120.80;;;71.72;;
55015;SDS011;40919;43.236;21.590;2022-12-18T15:28:23;145.30;;;80.90;;
55015;SDS011;40919;43.236;21.590;2022-12-18T15:33:31;123.03;;;72.60;;
55015;SDS011;40919;43.236;21.590;2022-12-18T15:35:58;110.88;;;69.30;;
55015;SDS011;40919;43.236;21.590;2022-12-18T15:38:25;110.90;;;66.43;;
55015;SDS011;40919;43.236;21.590;2022-12-18T15:40:52;139.45;;;78.50;;
55015;SDS011;40919;43.236;21.590;2022-12-18T15:43:19;113.25;;;64.55;;
55015;SDS011;40919;43.236;21.590;2022-12-18T15:48:27;77.22;;;45.28;;
55015;SDS011;40919;43.236;21.590;2022-12-18T15:50:54;89.82;;;51.28;;
55015;SDS011;40919;43.236;21.590;2022-12-18T15:53:22;76.20;;;43.45;;
55015;SDS011;40919;43.236;21.590;2022-12-18T15:55:48;90.35;;;54.08;;
55015;SDS011;40919;43.236;21.590;2022-12-18T15:58:33;74.32;;;45.03;;
55015;SDS011;40919;43.236;21.590;2022-12-18T16:00:59;76.45;;;42.67;;
55015;SDS011;40919;43.236;21.590;2022-12-18T16:03:26;85.10;;;48.35;;
55015;SDS011;40919;43.236;21.590;2022-12-18T16:05:52;95.20;;;52.35;;
55015;SDS011;40919;43.236;21.590;2022-12-18T16:08:18;102.38;;;58.03;;
55015;SDS011;40919;43.236;21.590;2022-12-18T16:10:44;95.40;;;57.60;;
55015;SDS011;40919;43.236;21.590;2022-12-18T16:13:11;133.18;;;74.00;;
55015;SDS011;40919;43.236;21.590;2022-12-18T16:15:38;109.13;;;61.20;;
55015;SDS011;40919;43.236;21.590;2022-12-18T16:18:04;98.03;;;60.83;;
55015;SDS011;40919;43.236;21.590;2022-12-18T16:20:30;104.35;;;64.68;;
55015;SDS011;40919;43.236;21.590;2022-12-18T16:22:56;113.97;;;68.88;;
55015;SDS011;40919;43.236;21.590;2022-12-18T16:25:23;120.22;;;77.05;;
55015;SDS011;40919;43.236;21.590;2022-12-18T16:27:50;113.38;;;68.43;;
55015;SDS011;40919;43.236;21.590;2022-12-18T16:30:24;101.85;;;60.83;;
55015;SDS011;40919;43.236;21.590;2022-12-18T16:32:52;93.03;;;57.25;;
55015;SDS011;40919;43.236;21.590;2022-12-18T16:35:18;81.25;;;50.70;;
55015;SDS011;40919;43.236;21.590;2022-12-18T16:37:44;132.50;;;75.95;;
55015;SDS011;40919;43.236;21.590;2022-12-18T16:40:12;125.18;;;72.47;;
55015;SDS011;40919;43.236;21.590;2022-12-18T16:42:39;124.07;;;72.43;;
55015;SDS011;40919;43.236;21.590;2022-12-18T16:45:06;115.07;;;68.75;;